Time;durP1;ratioP1;P1;durP2;ratioP2;P2;SDS_P1;SDS_P2;PMS_P1;PMS_P2;Temp;Humidity;BMP_temperature;BMP_pressure;BME280_temperature;BME280_humidity;BME280_pressure;Samples;Min_cycle;Max_cycle;Signal;HPM_P1;HPM_P2
2023/11/20 00:00:54;;;;;;;12.55;3.78;;;12.50;99.90;;;;;;5057063;28;20123;-84
2023/11/20 00:03:19;;;;;;;16.08;4.07;;;12.50;99.90;;;;;;5056560;28;20356;-84
2023/11/20 00:05:45;;;;;;;14.10;3.80;;;12.60;99.90;;;;;;5057117;28;20023;-84
2023/11/20 00:08:11;;;;;;;15.85;4.22;;;12.50;99.90;;;;;;5075227;28;20460;-84
2023/11/20 00:10:38;;;;;;;14.68;3.85;;;12.50;99.90;;;;;;5075071;28;20052;-84
2023/11/20 00:13:08;;;;;;;17.60;3.85;;;12.50;99.90;;;;;;5056781;28;20035;-84
2023/11/20 00:15:36;;;;;;;13.48;3.50;;;12.50;99.90;;;;;;5056856;28;20067;-84
2023/11/20 00:18:09;;;;;;;17.67;4.32;;;12.50;99.90;;;;;;5074763;28;20039;-84
2023/11/20 00:20:36;;;;;;;13.65;3.78;;;12.50;99.90;;;;;;5057034;28;20025;-83
2023/11/20 00:23:05;;;;;;;14.05;3.55;;;12.60;99.90;;;;;;5056518;28;20028;-83
2023/11/20 00:25:31;;;;;;;13.05;3.53;;;12.50;99.90;;;;;;5074451;28;20047;-84
2023/11/20 00:27:57;;;;;;;15.77;3.67;;;12.50;99.90;;;;;;5056567;28;20070;-85
2023/11/20 00:30:23;;;;;;;13.88;4.18;;;12.50;99.90;;;;;;5056517;28;20025;-84
2023/11/20 00:32:49;;;;;;;13.88;3.67;;;12.50;99.90;;;;;;5056648;28;20024;-84
2023/11/20 00:35:16;;;;;;;18.27;3.83;;;12.50;99.90;;;;;;5056315;28;20031;-83
2023/11/20 00:37:42;;;;;;;14.63;3.83;;;12.50;99.90;;;;;;5056503;28;20024;-84
2023/11/20 00:40:11;;;;;;;10.27;2.90;;;12.50;99.90;;;;;;5056237;28;20016;-84
2023/11/20 00:42:37;;;;;;;12.05;3.42;;;12.50;99.90;;;;;;5040114;28;20036;-85
2023/11/20 00:45:08;;;;;;;10.32;2.97;;;12.50;99.90;;;;;;5056668;28;20025;-84
2023/11/20 00:47:34;;;;;;;9.60;3.30;;;12.50;99.90;;;;;;5056557;28;20031;-84
2023/11/20 00:50:00;;;;;;;10.75;2.80;;;12.50;99.90;;;;;;5075139;28;20040;-85
2023/11/20 00:52:25;;;;;;;12.52;3.15;;;12.50;99.90;;;;;;5082148;28;20035;-84
2023/11/20 00:54:51;;;;;;;8.95;2.92;;;12.50;99.90;;;;;;5075716;28;20468;-84
2023/11/20 00:57:16;;;;;;;11.13;3.30;;;12.50;99.90;;;;;;5061308;28;20016;-83
2023/11/20 00:59:42;;;;;;;7.78;2.90;;;12.50;99.90;;;;;;5061962;28;20039;-85
2023/11/20 01:02:08;;;;;;;10.55;2.97;;;12.40;99.90;;;;;;5064679;28;20028;-83
2023/11/20 01:04:34;;;;;;;8.80;2.72;;;12.50;99.90;;;;;;5059284;28;20130;-85
2023/11/20 01:07:00;;;;;;;7.65;2.58;;;12.40;99.90;;;;;;5056473;28;20032;-84
2023/11/20 01:09:26;;;;;;;12.27;3.30;;;12.50;99.90;;;;;;5056122;28;20046;-84
2023/11/20 01:11:52;;;;;;;10.55;2.83;;;12.50;99.90;;;;;;5055944;28;20028;-85
2023/11/20 01:14:17;;;;;;;11.82;2.95;;;12.40;99.90;;;;;;5039595;28;20089;-85
2023/11/20 01:16:43;;;;;;;10.80;3.00;;;12.40;99.90;;;;;;5039300;28;20061;-85
2023/11/20 01:19:09;;;;;;;9.02;3.53;;;12.40;99.90;;;;;;5056336;28;20040;-84
2023/11/20 01:21:37;;;;;;;9.93;2.95;;;12.40;99.90;;;;;;5038921;28;20605;-84
2023/11/20 01:24:06;;;;;;;9.48;2.67;;;12.40;99.90;;;;;;5039097;28;20035;-84
2023/11/20 01:26:36;;;;;;;9.95;2.83;;;12.50;99.90;;;;;;5022451;28;20040;-85
2023/11/20 01:29:04;;;;;;;8.15;2.58;;;12.40;99.90;;;;;;5039254;28;20021;-84
2023/11/20 01:31:30;;;;;;;10.23;3.03;;;12.40;99.90;;;;;;5073435;28;20047;-84
2023/11/20 01:33:56;;;;;;;10.98;3.50;;;12.40;99.90;;;;;;5073435;28;20031;-84
2023/11/20 01:36:22;;;;;;;11.38;3.30;;;12.40;99.90;;;;;;5038984;28;20124;-83
2023/11/20 01:38:50;;;;;;;12.25;3.22;;;12.40;99.90;;;;;;5039153;28;20017;-84
2023/11/20 01:41:17;;;;;;;9.75;3.40;;;12.40;99.90;;;;;;5055518;28;20025;-83
2023/11/20 01:43:43;;;;;;;13.27;3.95;;;12.40;99.90;;;;;;5054906;28;20064;-84
2023/11/20 01:46:11;;;;;;;12.52;3.38;;;12.40;99.90;;;;;;5039048;28;20067;-84
2023/11/20 01:48:38;;;;;;;15.18;3.72;;;12.30;99.90;;;;;;5073343;28;20050;-84
2023/11/20 01:51:05;;;;;;;16.20;3.53;;;12.40;99.90;;;;;;5073391;28;20021;-84
2023/11/20 01:53:37;;;;;;;12.27;3.40;;;12.30;99.90;;;;;;5055672;28;20052;-84
2023/11/20 01:56:03;;;;;;;13.23;3.38;;;12.30;99.90;;;;;;5072939;28;20043;-83
2023/11/20 01:58:30;;;;;;;17.08;3.72;;;12.40;99.90;;;;;;5054538;28;20103;-85
2023/11/20 02:00:56;;;;;;;14.23;3.63;;;12.30;99.90;;;;;;5055134;28;20027;-84
2023/11/20 02:03:22;;;;;;;8.65;2.55;;;12.30;99.90;;;;;;5023586;28;20094;-85
2023/11/20 02:05:50;;;;;;;11.73;3.20;;;12.30;99.90;;;;;;5058909;28;20048;-84
2023/11/20 02:08:19;;;;;;;10.48;3.08;;;12.30;99.90;;;;;;5059415;28;20082;-84
2023/11/20 02:10:45;;;;;;;11.40;2.53;;;12.30;99.90;;;;;;5043192;28;20479;-84
2023/11/20 02:13:10;;;;;;;11.40;2.75;;;12.30;99.90;;;;;;5042814;28;20041;-84
2023/11/20 02:15:39;;;;;;;12.85;3.33;;;12.30;99.90;;;;;;5042864;28;20113;-84
2023/11/20 02:18:04;;;;;;;14.98;3.20;;;12.20;99.90;;;;;;5059103;28;20016;-84
2023/11/20 02:20:30;;;;;;;12.02;3.45;;;12.30;99.90;;;;;;5059364;28;20476;-84
2023/11/20 02:22:56;;;;;;;13.82;3.00;;;12.30;99.90;;;;;;5042840;28;20446;-84
2023/11/20 02:25:24;;;;;;;10.80;2.60;;;12.30;99.90;;;;;;5077215;28;20456;-83
2023/11/20 02:28:15;;;;;;;14.93;3.05;;;12.30;99.90;;;;;;5059750;28;20029;-84
2023/11/20 02:30:41;;;;;;;11.30;2.58;;;12.30;99.90;;;;;;5067888;28;20025;-83
2023/11/20 02:33:07;;;;;;;13.63;2.97;;;12.30;99.90;;;;;;5083823;28;20025;-84
2023/11/20 02:35:33;;;;;;;11.13;3.05;;;12.20;99.90;;;;;;5067222;28;20034;-84
2023/11/20 02:37:59;;;;;;;11.85;2.92;;;12.20;99.90;;;;;;5048333;28;20025;-84
2023/11/20 02:40:24;;;;;;;11.07;2.55;;;12.20;99.90;;;;;;5068840;28;20082;-83
2023/11/20 02:42:50;;;;;;;10.55;2.78;;;12.20;99.90;;;;;;5077170;28;20043;-85
2023/11/20 02:45:16;;;;;;;11.00;2.50;;;12.20;99.90;;;;;;5042785;28;20056;-85
2023/11/20 02:47:42;;;;;;;13.80;3.20;;;12.20;99.90;;;;;;5058604;28;20021;-82
2023/11/20 02:50:08;;;;;;;9.23;2.55;;;12.20;99.90;;;;;;5041938;28;20048;-84
2023/11/20 02:52:33;;;;;;;11.80;2.65;;;12.20;99.90;;;;;;5058411;28;20412;-84
2023/11/20 02:54:59;;;;;;;13.77;2.63;;;12.10;99.90;;;;;;5058543;28;20035;-83
2023/11/20 02:57:26;;;;;;;11.20;2.58;;;12.10;99.90;;;;;;5058364;28;20021;-83
2023/11/20 02:59:51;;;;;;;7.75;2.03;;;12.10;99.90;;;;;;5025471;28;20124;-83
2023/11/20 03:02:19;;;;;;;13.38;2.72;;;12.10;99.90;;;;;;5058196;28;20516;-84
2023/11/20 03:04:45;;;;;;;9.98;2.67;;;12.10;99.90;;;;;;5054344;28;20085;-83
2023/11/20 03:07:11;;;;;;;18.17;3.47;;;12.10;99.90;;;;;;5038491;28;20057;-83
2023/11/20 03:09:36;;;;;;;11.20;3.25;;;12.10;99.90;;;;;;5055117;28;20370;-83
2023/11/20 03:12:05;;;;;;;7.70;2.42;;;12.10;99.90;;;;;;5054658;28;20025;-84
2023/11/20 03:14:33;;;;;;;11.45;3.03;;;12.10;99.90;;;;;;5053310;28;20017;-84
2023/11/20 03:16:59;;;;;;;11.95;2.90;;;12.10;99.90;;;;;;5054431;28;20025;-84
2023/11/20 03:19:25;;;;;;;13.52;3.20;;;12.10;99.90;;;;;;5054361;28;20377;-84
2023/11/20 03:21:50;;;;;;;10.43;3.53;;;12.10;99.90;;;;;;5037383;28;20112;-84
2023/11/20 03:24:16;;;;;;;12.98;3.03;;;12.10;99.90;;;;;;5055706;28;20140;-84
2023/11/20 03:26:42;;;;;;;10.00;2.78;;;12.10;99.90;;;;;;5054178;28;20183;-84
2023/11/20 03:29:08;;;;;;;13.60;2.78;;;12.10;99.90;;;;;;5054352;28;20028;-84
2023/11/20 03:31:36;;;;;;;11.07;3.30;;;12.10;99.90;;;;;;5054679;28;20025;-84
2023/11/20 03:34:03;;;;;;;12.88;3.33;;;12.10;99.90;;;;;;5055791;28;20017;-84
2023/11/20 03:36:33;;;;;;;19.50;4.28;;;12.10;99.90;;;;;;5054395;28;20025;-84
2023/11/20 03:39:00;;;;;;;11.43;3.05;;;12.10;99.90;;;;;;5054333;28;20217;-84
2023/11/20 03:41:26;;;;;;;11.88;3.22;;;12.10;99.90;;;;;;5037453;28;20131;-84
2023/11/20 03:43:54;;;;;;;12.02;3.20;;;12.10;99.90;;;;;;5037516;28;20373;-84
2023/11/20 03:46:20;;;;;;;12.32;2.97;;;12.10;99.90;;;;;;5021063;28;20422;-84
2023/11/20 03:48:46;;;;;;;15.50;3.10;;;12.10;99.90;;;;;;5054139;28;20025;-84
2023/11/20 03:51:14;;;;;;;12.63;3.42;;;12.10;99.90;;;;;;5053800;28;20401;-84
2023/11/20 03:53:40;;;;;;;13.93;3.25;;;12.10;99.90;;;;;;5054273;28;20484;-83
2023/11/20 03:56:08;;;;;;;15.48;3.88;;;12.10;99.90;;;;;;5021228;28;20082;-84
2023/11/20 03:58:34;;;;;;;13.07;2.92;;;12.10;99.90;;;;;;5055466;28;20460;-83
2023/11/20 04:00:59;;;;;;;14.57;3.40;;;12.10;99.90;;;;;;5037630;28;20059;-85
2023/11/20 04:03:25;;;;;;;10.88;3.20;;;12.10;99.90;;;;;;5054855;28;20124;-84
2023/11/20 04:05:52;;;;;;;13.32;3.00;;;12.10;99.90;;;;;;5056949;28;20044;-84
2023/11/20 04:08:17;;;;;;;19.35;3.40;;;12.10;99.90;;;;;;5079257;28;20011;-84
2023/11/20 04:10:43;;;;;;;14.13;2.78;;;12.10;99.90;;;;;;5078713;28;20025;-82
2023/11/20 04:13:12;;;;;;;10.90;3.72;;;12.10;99.90;;;;;;5061774;28;20082;-83
2023/11/20 04:15:38;;;;;;;12.85;3.38;;;12.10;99.90;;;;;;5077853;28;20107;-83
2023/11/20 04:18:03;;;;;;;14.32;3.63;;;12.10;99.90;;;;;;5039992;28;20457;-83
2023/11/20 04:20:29;;;;;;;11.40;2.80;;;12.10;99.90;;;;;;5054255;28;20064;-84
2023/11/20 04:22:58;;;;;;;9.18;2.65;;;12.10;99.90;;;;;;5053711;28;20071;-84
2023/11/20 04:25:23;;;;;;;14.88;3.20;;;12.10;99.90;;;;;;5037192;28;20025;-84
2023/11/20 04:27:51;;;;;;;12.15;3.03;;;12.10;99.90;;;;;;5036851;28;20032;-84
2023/11/20 04:30:20;;;;;;;11.15;3.53;;;12.00;99.90;;;;;;5037061;28;20032;-84
2023/11/20 04:32:46;;;;;;;13.55;3.28;;;12.10;99.90;;;;;;5053028;28;20028;-84
2023/11/20 04:35:11;;;;;;;11.02;2.72;;;12.00;99.90;;;;;;5036906;28;20025;-84
2023/11/20 04:37:40;;;;;;;14.25;2.85;;;12.10;99.90;;;;;;5037361;28;20033;-84
2023/11/20 04:40:07;;;;;;;10.20;2.72;;;12.10;99.90;;;;;;5053008;28;20025;-84
2023/11/20 04:42:36;;;;;;;13.13;3.13;;;12.10;99.90;;;;;;5036857;28;20029;-83
2023/11/20 04:45:02;;;;;;;9.32;2.70;;;12.00;99.90;;;;;;5053986;28;20017;-84
2023/11/20 04:47:28;;;;;;;10.52;3.20;;;12.10;99.90;;;;;;5053090;28;20350;-83
2023/11/20 04:49:54;;;;;;;12.32;3.35;;;12.00;99.90;;;;;;5052796;28;20024;-84
2023/11/20 04:52:19;;;;;;;12.73;2.83;;;12.10;99.90;;;;;;5052773;28;20033;-84
2023/11/20 04:54:47;;;;;;;12.85;3.20;;;12.00;99.90;;;;;;5036185;28;20029;-83
2023/11/20 04:57:12;;;;;;;15.40;3.17;;;12.00;99.90;;;;;;5053290;28;20029;-84
2023/11/20 04:59:38;;;;;;;13.93;2.90;;;12.00;99.90;;;;;;5052734;28;20107;-83
2023/11/20 05:02:04;;;;;;;11.43;2.90;;;12.00;99.90;;;;;;5036281;28;20052;-84
2023/11/20 05:04:31;;;;;;;9.50;2.65;;;12.00;99.90;;;;;;5037871;28;20471;-83
2023/11/20 05:06:59;;;;;;;11.32;2.72;;;12.00;99.90;;;;;;5055969;28;20059;-84
2023/11/20 05:09:25;;;;;;;13.85;2.92;;;12.00;99.90;;;;;;5039628;28;20031;-83
2023/11/20 05:11:51;;;;;;;13.20;2.70;;;12.10;99.90;;;;;;5039198;28;20025;-83
2023/11/20 05:14:17;;;;;;;13.75;2.58;;;12.00;99.90;;;;;;5073447;28;20028;-83
2023/11/20 05:16:43;;;;;;;12.65;2.70;;;12.10;99.90;;;;;;5056045;28;20044;-83
2023/11/20 05:19:12;;;;;;;9.88;2.50;;;12.10;99.90;;;;;;5055529;28;20021;-84
2023/11/20 05:21:41;;;;;;;12.32;3.08;;;12.10;99.90;;;;;;5073377;28;20058;-83
2023/11/20 05:24:07;;;;;;;11.63;3.03;;;12.10;99.90;;;;;;5073931;28;20029;-83
2023/11/20 05:26:33;;;;;;;9.07;2.67;;;12.10;99.90;;;;;;5056236;28;20487;-83
2023/11/20 05:28:59;;;;;;;14.93;3.17;;;12.10;99.90;;;;;;5039230;28;20063;-83
2023/11/20 05:31:25;;;;;;;11.13;2.33;;;12.10;99.90;;;;;;5073889;28;20066;-84
2023/11/20 05:33:51;;;;;;;8.80;2.47;;;12.10;99.90;;;;;;5055754;28;20025;-84
2023/11/20 05:36:17;;;;;;;11.25;3.17;;;12.10;99.90;;;;;;5056027;28;20024;-83
2023/11/20 05:38:43;;;;;;;14.75;2.83;;;12.10;99.90;;;;;;5039029;28;20460;-83
2023/11/20 05:41:11;;;;;;;15.40;3.03;;;12.00;99.90;;;;;;5059885;28;20052;-89
2023/11/20 05:43:40;;;;;;;12.52;3.22;;;12.10;99.90;;;;;;5062716;28;20037;-85
2023/11/20 05:46:06;;;;;;;16.75;3.20;;;12.00;99.90;;;;;;5080214;28;20123;-85
2023/11/20 05:48:36;;;;;;;11.82;2.85;;;11.90;99.90;;;;;;5063880;28;20009;-85
2023/11/20 05:51:03;;;;;;;13.25;2.83;;;11.90;99.90;;;;;;5091720;28;20032;-85
2023/11/20 05:53:28;;;;;;;12.30;2.88;;;11.90;99.90;;;;;;5040654;28;20033;-85
2023/11/20 05:55:54;;;;;;;12.18;2.92;;;11.90;99.90;;;;;;5056068;28;20089;-86
2023/11/20 05:58:20;;;;;;;10.80;3.22;;;11.90;99.90;;;;;;5056116;28;20035;-85
2023/11/20 06:00:45;;;;;;;13.13;3.05;;;11.90;99.90;;;;;;5055627;28;20021;-87
2023/11/20 06:03:11;;;;;;;10.75;2.88;;;11.80;99.90;;;;;;5055477;28;20032;-86
2023/11/20 06:05:40;;;;;;;12.77;3.25;;;11.80;99.90;;;;;;5035383;28;20060;-86
2023/11/20 06:08:06;;;;;;;13.93;3.28;;;11.80;99.90;;;;;;5052977;28;20021;-85
2023/11/20 06:10:34;;;;;;;12.63;3.50;;;11.80;99.90;;;;;;5035650;28;20507;-87
2023/11/20 06:13:00;;;;;;;11.57;3.13;;;11.90;99.90;;;;;;5051799;28;20064;-87
2023/11/20 06:15:26;;;;;;;12.98;2.85;;;11.90;99.90;;;;;;5035886;28;20113;-86
2023/11/20 06:17:52;;;;;;;11.82;2.65;;;11.80;99.90;;;;;;5035690;28;20025;-88
2023/11/20 06:20:18;;;;;;;12.05;2.58;;;11.80;99.90;;;;;;5052115;28;20119;-87
2023/11/20 06:22:44;;;;;;;11.90;3.15;;;11.90;99.90;;;;;;5035784;28;20204;-87
2023/11/20 06:25:12;;;;;;;13.63;3.10;;;11.90;99.90;;;;;;5052317;28;20120;-88
2023/11/20 06:27:40;;;;;;;8.63;2.90;;;11.90;99.90;;;;;;5053540;28;20476;-86
2023/11/20 06:30:07;;;;;;;8.75;2.58;;;11.90;99.90;;;;;;5052438;28;20441;-87
2023/11/20 06:32:32;;;;;;;10.40;2.67;;;11.90;99.90;;;;;;5054239;28;20060;-86
2023/11/20 06:34:58;;;;;;;12.23;3.08;;;11.90;99.90;;;;;;5051891;28;20053;-86
2023/11/20 06:37:24;;;;;;;8.52;2.63;;;11.90;99.90;;;;;;5052916;28;20028;-85
2023/11/20 06:39:50;;;;;;;9.73;2.88;;;11.90;99.90;;;;;;5035274;28;20025;-86
2023/11/20 06:42:15;;;;;;;14.98;2.90;;;11.90;99.90;;;;;;5035200;28;20381;-87
2023/11/20 06:44:41;;;;;;;12.75;3.03;;;11.80;99.90;;;;;;5051828;28;20034;-84
2023/11/20 06:47:07;;;;;;;12.07;2.90;;;11.80;99.90;;;;;;5034918;28;20036;-86
2023/11/20 06:49:35;;;;;;;11.27;2.60;;;11.80;99.90;;;;;;5036411;28;20480;-86
2023/11/20 06:52:00;;;;;;;13.00;3.35;;;11.70;99.90;;;;;;5055017;28;20036;-86
2023/11/20 06:54:26;;;;;;;10.60;2.88;;;11.70;99.90;;;;;;5055132;28;20033;-85
2023/11/20 06:56:53;;;;;;;10.63;3.03;;;11.70;99.90;;;;;;5038874;28;20025;-85
2023/11/20 06:59:19;;;;;;;12.27;2.88;;;11.70;99.90;;;;;;5055149;28;20049;-85
2023/11/20 07:01:45;;;;;;;15.57;3.38;;;11.70;99.90;;;;;;5055980;28;20014;-86
2023/11/20 07:04:15;;;;;;;10.50;3.20;;;11.60;99.90;;;;;;5038431;28;20037;-86
2023/11/20 07:06:43;;;;;;;16.67;3.88;;;11.60;99.90;;;;;;5055588;28;20041;-86
2023/11/20 07:09:14;;;;;;;11.98;3.15;;;11.60;99.90;;;;;;5055542;28;20107;-85
2023/11/20 07:11:41;;;;;;;13.82;3.53;;;11.60;99.90;;;;;;5056873;28;20021;-86
2023/11/20 07:14:08;;;;;;;15.52;3.65;;;11.60;99.90;;;;;;5057106;28;20021;-86
2023/11/20 07:16:37;;;;;;;16.30;2.95;;;11.60;99.90;;;;;;5041025;28;20097;-85
2023/11/20 07:19:04;;;;;;;14.15;3.13;;;11.60;99.90;;;;;;5079042;28;20025;-84
2023/11/20 07:21:30;;;;;;;13.98;3.45;;;11.60;99.90;;;;;;5079799;28;20029;-85
2023/11/20 07:23:57;;;;;;;11.15;2.63;;;11.60;99.90;;;;;;5079334;28;20031;-84
2023/11/20 07:26:26;;;;;;;17.40;4.07;;;11.60;99.90;;;;;;5079225;28;20097;-85
2023/11/20 07:28:52;;;;;;;12.95;2.80;;;11.60;99.90;;;;;;5079142;28;20012;-85
2023/11/20 07:31:28;;;;;;;16.92;3.67;;;11.60;99.90;;;;;;5062282;28;20384;-86
2023/11/20 07:33:59;;;;;;;12.55;3.20;;;11.70;99.90;;;;;;5055882;28;20103;-86
2023/11/20 07:36:25;;;;;;;13.15;3.28;;;11.70;99.90;;;;;;5056133;28;20068;-85
2023/11/20 07:38:51;;;;;;;17.05;3.53;;;11.70;99.90;;;;;;5054648;28;20045;-86
2023/11/20 07:41:18;;;;;;;12.00;3.30;;;11.70;99.90;;;;;;5055409;28;20423;-86
2023/11/20 07:43:44;;;;;;;13.23;3.22;;;11.70;99.90;;;;;;5054127;28;20473;-85
2023/11/20 07:46:10;;;;;;;16.15;3.83;;;11.70;99.90;;;;;;5021354;28;20029;-86
2023/11/20 07:48:37;;;;;;;15.13;3.38;;;11.60;99.90;;;;;;5055322;28;20457;-86
2023/11/20 07:51:03;;;;;;;12.27;3.17;;;11.60;99.90;;;;;;5037729;28;20351;-86
2023/11/20 07:53:29;;;;;;;13.02;3.72;;;11.60;99.90;;;;;;5054029;28;20108;-86
2023/11/20 07:55:55;;;;;;;13.50;3.05;;;11.60;99.90;;;;;;5053989;28;20021;-86
2023/11/20 07:58:20;;;;;;;17.80;3.35;;;11.60;99.90;;;;;;5053720;28;20098;-85
2023/11/20 08:00:47;;;;;;;10.50;2.80;;;11.50;99.90;;;;;;5053134;28;20465;-85
2023/11/20 08:03:13;;;;;;;11.15;2.95;;;11.60;99.90;;;;;;5053732;28;20159;-86
2023/11/20 08:05:39;;;;;;;11.95;3.45;;;11.60;99.90;;;;;;5054091;28;20132;-86
2023/11/20 08:08:05;;;;;;;14.35;3.65;;;11.60;99.90;;;;;;5053483;28;20104;-87
2023/11/20 08:10:31;;;;;;;15.13;3.45;;;11.60;99.90;;;;;;5053913;28;20494;-85
2023/11/20 08:12:56;;;;;;;13.98;3.40;;;11.60;99.90;;;;;;5053401;28;20021;-86
2023/11/20 08:15:22;;;;;;;16.98;4.15;;;11.60;99.90;;;;;;5036975;28;20052;-86
2023/11/20 08:17:48;;;;;;;13.73;3.58;;;11.60;99.90;;;;;;5037110;28;20468;-86
2023/11/20 08:20:16;;;;;;;13.40;3.60;;;11.60;99.90;;;;;;5036901;28;20391;-85
2023/11/20 08:22:42;;;;;;;13.85;3.28;;;11.50;99.90;;;;;;5021330;28;20388;-86
2023/11/20 08:25:08;;;;;;;11.68;3.35;;;11.50;99.90;;;;;;5054417;28;20021;-86
2023/11/20 08:27:36;;;;;;;13.60;3.20;;;11.50;99.90;;;;;;5036489;28;20136;-86
2023/11/20 08:30:04;;;;;;;15.48;3.30;;;11.50;99.90;;;;;;5053188;28;20024;-86
2023/11/20 08:32:30;;;;;;;13.68;3.63;;;11.40;99.90;;;;;;5053281;28;20022;-86
2023/11/20 08:34:56;;;;;;;11.48;3.05;;;11.40;99.90;;;;;;5052843;28;20025;-86
2023/11/20 08:37:22;;;;;;;17.23;3.58;;;11.50;99.90;;;;;;5053264;28;20086;-86
2023/11/20 08:39:47;;;;;;;13.70;3.60;;;11.40;99.90;;;;;;5053309;28;20071;-85
2023/11/20 08:42:13;;;;;;;19.60;4.03;;;11.50;99.90;;;;;;5052994;28;20366;-86
2023/11/20 08:44:39;;;;;;;13.23;3.13;;;11.50;99.90;;;;;;5053126;28;20033;-86
2023/11/20 08:47:09;;;;;;;15.05;3.67;;;11.60;99.90;;;;;;5053090;28;20047;-86
2023/11/20 08:49:36;;;;;;;11.68;3.63;;;11.60;99.90;;;;;;5054851;28;20017;-86
2023/11/20 08:52:04;;;;;;;14.38;3.47;;;11.60;99.90;;;;;;5061676;28;20013;-86
2023/11/20 08:54:30;;;;;;;13.50;3.33;;;11.60;99.90;;;;;;5061578;28;20021;-86
2023/11/20 08:56:56;;;;;;;13.27;4.03;;;11.70;99.90;;;;;;5077872;28;20032;-86
2023/11/20 08:59:22;;;;;;;13.75;3.53;;;11.60;99.90;;;;;;5077583;28;20040;-86
2023/11/20 09:01:47;;;;;;;15.20;3.72;;;11.60;99.90;;;;;;5052305;28;20079;-86
2023/11/20 09:04:13;;;;;;;15.95;3.80;;;11.60;99.90;;;;;;5037050;28;20044;-86
2023/11/20 09:06:39;;;;;;;15.48;3.95;;;11.60;99.90;;;;;;5036800;28;20052;-87
2023/11/20 09:09:05;;;;;;;16.13;4.30;;;11.60;99.90;;;;;;5036502;28;20357;-86
2023/11/20 09:11:31;;;;;;;15.40;3.55;;;11.60;99.90;;;;;;5036211;28;20124;-85
2023/11/20 09:13:57;;;;;;;17.33;4.75;;;11.60;99.90;;;;;;5035839;28;20025;-85
2023/11/20 09:16:23;;;;;;;12.60;3.58;;;11.60;99.90;;;;;;5052151;28;20017;-86
2023/11/20 09:18:50;;;;;;;16.25;3.88;;;11.60;99.90;;;;;;5036182;28;20040;-86
2023/11/20 09:21:16;;;;;;;13.25;3.13;;;11.70;99.90;;;;;;5052416;28;20032;-86
2023/11/20 09:23:45;;;;;;;14.35;3.92;;;11.70;99.90;;;;;;5052490;28;20495;-85
2023/11/20 09:26:12;;;;;;;14.68;3.58;;;11.80;99.90;;;;;;5052124;28;20025;-86
2023/11/20 09:28:42;;;;;;;14.77;3.40;;;11.80;99.90;;;;;;5052569;28;20127;-86
2023/11/20 09:31:15;;;;;;;12.23;3.22;;;11.80;99.90;;;;;;5052310;28;20021;-86
2023/11/20 09:33:40;;;;;;;13.70;3.92;;;11.90;99.90;;;;;;5052629;28;20028;-86
2023/11/20 09:36:06;;;;;;;15.27;4.15;;;11.90;99.90;;;;;;5036016;28;20025;-86
2023/11/20 09:38:35;;;;;;;15.05;3.35;;;11.90;99.90;;;;;;5051983;28;20099;-86
2023/11/20 09:41:01;;;;;;;15.38;3.95;;;12.00;99.90;;;;;;5035966;28;20037;-86
2023/11/20 09:43:31;;;;;;;17.13;3.42;;;12.00;99.90;;;;;;5052036;28;20473;-86
2023/11/20 09:46:06;;;;;;;14.80;3.58;;;12.10;99.90;;;;;;5052189;28;20075;-86
2023/11/20 09:48:33;;;;;;;11.85;3.50;;;12.10;99.90;;;;;;5052137;28;20052;-86
2023/11/20 09:51:00;;;;;;;14.00;3.63;;;12.10;99.90;;;;;;5052203;28;20028;-85
2023/11/20 09:53:34;;;;;;;15.60;4.00;;;12.10;99.90;;;;;;5052066;28;20025;-86
2023/11/20 09:56:03;;;;;;;14.05;4.20;;;12.10;99.90;;;;;;5052145;28;20082;-85
2023/11/20 09:58:32;;;;;;;18.15;4.47;;;12.10;99.90;;;;;;5052027;28;20083;-86
2023/11/20 10:01:09;;;;;;;16.90;4.95;;;12.10;99.90;;;;;;5052197;28;20515;-86
2023/11/20 10:03:39;;;;;;;21.23;5.45;;;12.10;99.90;;;;;;5035411;28;20128;-85
2023/11/20 10:06:13;;;;;;;12.23;3.83;;;12.10;99.90;;;;;;5051713;28;20128;-86
2023/11/20 10:08:48;;;;;;;18.00;4.55;;;12.20;99.90;;;;;;5052978;28;20373;-86
2023/11/20 10:11:21;;;;;;;17.73;5.25;;;12.10;99.90;;;;;;5036498;28;20029;-85
2023/11/20 10:13:46;;;;;;;16.35;4.47;;;12.10;99.90;;;;;;5051929;28;20063;-86
2023/11/20 10:16:22;;;;;;;18.38;5.45;;;12.10;99.90;;;;;;5053258;28;20021;-86
2023/11/20 10:18:49;;;;;;;18.23;5.30;;;12.20;99.90;;;;;;5035650;28;20394;-85
2023/11/20 10:21:18;;;;;;;16.55;5.05;;;12.20;99.90;;;;;;5051889;28;20060;-86
2023/11/20 10:23:44;;;;;;;13.50;5.00;;;12.20;99.90;;;;;;5052120;28;20032;-85
2023/11/20 10:26:11;;;;;;;13.40;4.85;;;12.20;99.90;;;;;;5056140;28;20025;-85
2023/11/20 10:28:40;;;;;;;16.00;4.95;;;12.20;99.90;;;;;;5076229;28;20029;-84
2023/11/20 10:31:06;;;;;;;15.63;5.43;;;12.20;99.90;;;;;;5080644;28;20033;-85
2023/11/20 10:33:33;;;;;;;14.05;5.15;;;12.20;99.90;;;;;;5063971;28;20020;-86
2023/11/20 10:36:12;;;;;;;14.68;5.45;;;12.20;99.90;;;;;;5047533;28;20036;-86
2023/11/20 10:38:38;;;;;;;11.90;4.50;;;12.30;99.90;;;;;;5061015;28;20047;-86
2023/11/20 10:41:11;;;;;;;12.63;4.57;;;12.30;99.90;;;;;;5039418;28;20051;-86
2023/11/20 10:43:38;;;;;;;14.77;4.63;;;12.40;99.90;;;;;;5057112;28;20025;-86
2023/11/20 10:46:05;;;;;;;16.63;5.35;;;12.40;99.90;;;;;;5055502;28;20116;-87
2023/11/20 10:48:40;;;;;;;19.75;6.15;;;12.50;99.90;;;;;;5038542;28;20060;-86
2023/11/20 10:51:08;;;;;;;14.77;5.22;;;12.60;99.90;;;;;;5055700;28;20017;-86
2023/11/20 10:53:39;;;;;;;19.67;5.85;;;12.60;99.90;;;;;;5056707;28;20373;-85
2023/11/20 10:56:10;;;;;;;21.70;5.55;;;12.60;99.90;;;;;;5054687;28;20040;-86
2023/11/20 10:58:38;;;;;;;14.73;5.78;;;12.70;99.90;;;;;;5055181;28;20017;-86
2023/11/20 11:01:07;;;;;;;14.77;5.78;;;12.70;99.90;;;;;;5054942;28;20027;-86
2023/11/20 11:03:34;;;;;;;12.10;5.53;;;12.70;99.90;;;;;;5022264;28;20037;-87
2023/11/20 11:06:04;;;;;;;12.35;5.45;;;12.60;99.90;;;;;;5054339;28;20053;-85
2023/11/20 11:08:32;;;;;;;14.50;5.80;;;12.60;99.90;;;;;;5038928;28;20032;-86
2023/11/20 11:10:59;;;;;;;12.27;5.57;;;12.70;99.90;;;;;;5055043;28;20021;-86
2023/11/20 11:13:33;;;;;;;17.20;6.25;;;12.70;99.90;;;;;;5054836;28;20392;-85
2023/11/20 11:16:00;;;;;;;15.45;6.00;;;12.70;99.90;;;;;;5056363;28;20092;-85
2023/11/20 11:18:30;;;;;;;16.25;6.63;;;12.70;99.90;;;;;;5054689;28;20032;-86
2023/11/20 11:20:58;;;;;;;13.85;5.60;;;12.80;99.90;;;;;;5055013;28;20029;-86
2023/11/20 11:23:52;;;;;;;14.73;5.80;;;12.90;99.90;;;;;;5055872;28;20099;-86
2023/11/20 11:26:30;;;;;;;13.38;4.68;;;12.90;99.90;;;;;;5052441;28;20118;-86
2023/11/20 11:29:01;;;;;;;11.50;5.10;;;13.00;99.90;;;;;;5054703;28;20163;-86
2023/11/20 11:32:05;;;;;;;15.55;5.85;;;13.00;99.90;;;;;;5054737;28;20411;-86
2023/11/20 11:34:43;;;;;;;14.02;5.25;;;13.00;99.90;;;;;;5052166;28;20499;-87
2023/11/20 11:37:21;;;;;;;13.90;5.65;;;12.90;99.90;;;;;;5053145;28;20494;-87
2023/11/20 11:40:12;;;;;;;11.70;4.30;;;13.00;99.90;;;;;;5054366;28;20029;-86
2023/11/20 11:42:53;;;;;;;13.95;5.95;;;13.00;99.90;;;;;;5033349;28;20171;-87
2023/11/20 11:45:21;;;;;;;11.80;4.93;;;12.90;99.90;;;;;;5054438;28;20021;-86
2023/11/20 11:47:48;;;;;;;13.73;4.72;;;12.90;99.90;;;;;;5054653;28;20086;-86
2023/11/20 11:50:17;;;;;;;14.35;4.72;;;13.00;99.90;;;;;;5038248;28;20025;-86
2023/11/20 11:52:47;;;;;;;9.77;4.30;;;12.90;99.90;;;;;;5038445;28;20047;-86
2023/11/20 11:55:14;;;;;;;16.50;4.05;;;12.90;99.90;;;;;;5055402;28;20103;-86
2023/11/20 11:57:40;;;;;;;11.73;3.70;;;12.90;99.90;;;;;;5055741;28;20060;-86
2023/11/20 12:00:14;;;;;;;10.88;3.92;;;12.90;99.90;;;;;;5058187;28;20028;-87
2023/11/20 12:03:11;;;;;;;13.68;4.15;;;13.00;99.90;;;;;;5042361;28;20107;-86
2023/11/20 12:05:55;;;;;;;12.45;4.68;;;13.00;99.90;;;;;;5071258;28;20053;-86
2023/11/20 12:08:22;;;;;;;15.00;3.63;;;13.10;99.90;;;;;;5078215;28;20021;-87
2023/11/20 12:10:52;;;;;;;9.23;3.33;;;13.20;99.90;;;;;;5060293;28;20022;-86
2023/11/20 12:13:26;;;;;;;14.52;3.92;;;13.20;99.90;;;;;;5073607;28;20075;-86
2023/11/20 12:16:07;;;;;;;12.52;3.40;;;13.30;99.90;;;;;;5056248;28;20155;-86
2023/11/20 12:18:37;;;;;;;10.30;3.67;;;13.30;99.90;;;;;;5055874;28;20023;-86
2023/11/20 12:21:08;;;;;;;13.05;3.40;;;13.40;99.90;;;;;;5053941;28;20043;-86
2023/11/20 12:23:33;;;;;;;;;;;13.40;99.90;;;;;;5053863;28;20033;-86
2023/11/20 12:26:01;;;;;;;13.57;3.30;;;13.50;99.90;;;;;;5053717;28;20073;-87
2023/11/20 12:28:31;;;;;;;11.52;3.08;;;13.50;99.90;;;;;;5053591;28;20036;-86
2023/11/20 12:30:59;;;;;;;8.75;3.08;;;13.50;99.90;;;;;;5053220;28;20029;-86
2023/11/20 12:33:25;;;;;;;11.00;2.90;;;13.50;99.90;;;;;;5053801;28;20056;-87
2023/11/20 12:35:54;;;;;;;7.88;3.35;;;13.50;99.90;;;;;;5053181;28;20111;-86
2023/11/20 12:38:21;;;;;;;11.02;2.75;;;13.50;99.90;;;;;;5036928;28;20028;-87
2023/11/20 12:40:54;;;;;;;10.38;3.00;;;13.60;99.90;;;;;;5053111;28;20423;-86